Time;durP1;ratioP1;P1;durP2;ratioP2;P2;SDS_P1;SDS_P2;PMS_P1;PMS_P2;Temp;Humidity;BMP_temperature;BMP_pressure;BME280_temperature;BME280_humidity;BME280_pressure;Samples;Min_cycle;Max_cycle;Signal;HPM_P1;HPM_P2
2022/10/13 00:01:16;;;;;;;7.33;3.53;;;;;;;;;;5002299;28;20752;-75
2022/10/13 00:03:47;;;;;;;5.53;3.73;;;;;;;;;;5013237;28;20221;-75
2022/10/13 00:06:24;;;;;;;5.30;3.50;;;;;;;;;;4983787;28;20229;-75
2022/10/13 00:08:49;;;;;;;5.37;3.57;;;;;;;;;;4991709;28;20276;-75
2022/10/13 00:11:23;;;;;;;5.57;3.53;;;;;;;;;;4976942;28;21006;-74
2022/10/13 00:13:51;;;;;;;11.73;3.80;;;;;;;;;;4972308;28;20713;-75
2022/10/13 00:16:20;;;;;;;7.23;3.60;;;;;;;;;;4979003;28;20236;-74
2022/10/13 00:18:45;;;;;;;7.97;3.83;;;;;;;;;;4995128;28;20235;-75
2022/10/13 00:21:16;;;;;;;8.87;3.40;;;;;;;;;;4985367;28;20224;-74
2022/10/13 00:23:46;;;;;;;6.40;3.60;;;;;;;;;;4995781;28;20257;-74
2022/10/13 00:26:17;;;;;;;6.30;3.80;;;;;;;;;;4991928;28;20237;-73
2022/10/13 00:28:43;;;;;;;6.40;3.70;;;;;;;;;;4973093;28;20721;-75
2022/10/13 00:31:24;;;;;;;10.23;3.60;;;;;;;;;;4971642;28;20273;-74
2022/10/13 00:33:50;;;;;;;8.33;3.70;;;;;;;;;;4990660;28;20242;-73
2022/10/13 00:36:17;;;;;;;8.97;3.83;;;;;;;;;;4993032;28;20661;-74
2022/10/13 00:38:42;;;;;;;6.40;3.50;;;;;;;;;;4980693;28;20224;-74
2022/10/13 00:41:10;;;;;;;5.67;3.33;;;;;;;;;;5007090;28;20217;-72
2022/10/13 00:44:02;;;;;;;5.43;3.63;;;;;;;;;;4976524;28;20226;-74
2022/10/13 00:46:29;;;;;;;4.43;3.57;;;;;;;;;;4977899;28;20229;-75
2022/10/13 00:48:57;;;;;;;5.90;3.27;;;;;;;;;;4986293;28;20232;-75
2022/10/13 00:51:26;;;;;;;7.30;3.50;;;;;;;;;;4987942;28;20222;-75
2022/10/13 00:53:55;;;;;;;7.90;3.80;;;;;;;;;;4995653;28;20283;-75
2022/10/13 00:56:23;;;;;;;7.30;4.03;;;;;;;;;;4999580;28;20225;-75
2022/10/13 00:58:51;;;;;;;5.53;3.67;;;;;;;;;;4993829;28;20324;-75
2022/10/13 01:01:21;;;;;;;5.03;3.60;;;;;;;;;;4983098;28;20225;-75
2022/10/13 01:03:52;;;;;;;8.13;3.77;;;;;;;;;;4992089;28;20264;-75
2022/10/13 01:06:21;;;;;;;7.83;4.17;;;;;;;;;;4970515;28;20228;-74
2022/10/13 01:08:46;;;;;;;7.10;3.97;;;;;;;;;;4957696;28;20225;-74
2022/10/13 01:11:21;;;;;;;8.33;4.07;;;;;;;;;;5001838;28;20221;-74
2022/10/13 01:14:09;;;;;;;6.37;3.70;;;;;;;;;;5007583;28;20287;-74
2022/10/13 01:16:56;;;;;;;6.33;4.30;;;;;;;;;;4987142;28;20260;-74
2022/10/13 01:20:00;;;;;;;9.67;4.23;;;;;;;;;;4997117;28;20230;-74
2022/10/13 01:22:27;;;;;;;5.50;3.97;;;;;;;;;;4996229;28;20263;-74
2022/10/13 01:25:10;;;;;;;6.40;3.90;;;;;;;;;;4994478;28;20714;-73
2022/10/13 01:28:09;;;;;;;8.60;4.27;;;;;;;;;;4981522;28;20229;-74
2022/10/13 01:30:36;;;;;;;5.97;4.27;;;;;;;;;;4990382;28;20235;-75
2022/10/13 01:33:21;;;;;;;7.20;4.33;;;;;;;;;;4988852;28;20698;-74
2022/10/13 01:35:55;;;;;;;8.37;4.07;;;;;;;;;;5012925;28;20283;-74
2022/10/13 01:38:39;;;;;;;10.23;4.53;;;;;;;;;;4985631;28;20296;-74
2022/10/13 01:41:13;;;;;;;4.57;3.83;;;;;;;;;;4991390;28;20232;-74
2022/10/13 01:43:44;;;;;;;7.83;4.57;;;;;;;;;;4993704;28;20228;-75
2022/10/13 01:46:26;;;;;;;6.90;4.00;;;;;;;;;;4957476;28;20257;-75
2022/10/13 01:48:57;;;;;;;7.13;4.33;;;;;;;;;;4978524;28;20236;-74
2022/10/13 01:51:23;;;;;;;9.83;4.80;;;;;;;;;;4992225;28;20225;-74
2022/10/13 01:53:51;;;;;;;5.87;4.37;;;;;;;;;;4971471;28;20230;-74
2022/10/13 01:56:20;;;;;;;6.43;4.23;;;;;;;;;;5000970;28;20228;-74
2022/10/13 01:58:48;;;;;;;5.97;4.20;;;;;;;;;;4979883;28;20255;-74
2022/10/13 02:01:32;;;;;;;7.57;4.53;;;;;;;;;;4969905;28;20229;-74
2022/10/13 02:04:22;;;;;;;6.10;4.20;;;;;;;;;;4999524;28;20700;-75
2022/10/13 02:06:59;;;;;;;5.83;4.20;;;;;;;;;;4988867;28;20225;-75
2022/10/13 02:09:39;;;;;;;8.60;4.27;;;;;;;;;;4993255;28;20225;-74
2022/10/13 02:12:07;;;;;;;8.20;4.30;;;;;;;;;;4996865;28;20225;-74
2022/10/13 02:14:36;;;;;;;7.13;4.57;;;;;;;;;;4984161;28;20237;-76
2022/10/13 02:17:03;;;;;;;4.93;4.23;;;;;;;;;;4999853;28;20233;-75
2022/10/13 02:19:34;;;;;;;8.60;4.77;;;;;;;;;;4979924;28;20663;-75
2022/10/13 02:21:59;;;;;;;8.77;4.77;;;;;;;;;;4976832;28;20217;-75
2022/10/13 02:24:25;;;;;;;6.60;4.87;;;;;;;;;;4974517;28;20213;-75
2022/10/13 02:26:52;;;;;;;7.83;4.83;;;;;;;;;;4976209;28;20257;-74
2022/10/13 02:29:18;;;;;;;6.87;4.60;;;;;;;;;;4977690;28;20235;-75
2022/10/13 02:31:46;;;;;;;7.07;4.80;;;;;;;;;;5002628;28;20248;-75
2022/10/13 02:34:12;;;;;;;5.40;4.37;;;;;;;;;;5009462;28;20605;-75
2022/10/13 02:36:40;;;;;;;6.57;4.63;;;;;;;;;;4999592;28;20241;-75
2022/10/13 02:39:08;;;;;;;7.07;4.90;;;;;;;;;;4988975;28;20276;-75
2022/10/13 02:41:36;;;;;;;6.50;4.77;;;;;;;;;;5003843;28;20225;-76
2022/10/13 02:44:04;;;;;;;7.57;4.60;;;;;;;;;;4974676;28;20227;-74
2022/10/13 02:46:34;;;;;;;9.70;5.10;;;;;;;;;;4986578;28;20222;-75
2022/10/13 02:49:00;;;;;;;5.63;5.13;;;;;;;;;;4980978;28;20248;-75
2022/10/13 02:51:27;;;;;;;6.63;5.27;;;;;;;;;;4996583;28;20236;-74
2022/10/13 02:53:52;;;;;;;6.27;5.43;;;;;;;;;;4981298;28;20229;-75
2022/10/13 02:56:18;;;;;;;8.27;5.50;;;;;;;;;;5003213;28;20229;-74
2022/10/13 02:58:43;;;;;;;7.63;5.13;;;;;;;;;;4990084;28;20228;-74
2022/10/13 03:01:13;;;;;;;6.53;4.70;;;;;;;;;;4975716;28;20222;-75
2022/10/13 03:03:38;;;;;;;6.23;5.30;;;;;;;;;;4975941;28;20220;-74
2022/10/13 03:06:04;;;;;;;6.60;5.30;;;;;;;;;;4974475;28;20233;-74
2022/10/13 03:08:30;;;;;;;8.83;5.33;;;;;;;;;;4998670;28;20234;-75
2022/10/13 03:10:58;;;;;;;9.00;5.23;;;;;;;;;;4972387;28;20711;-75
2022/10/13 03:13:24;;;;;;;5.30;4.80;;;;;;;;;;4989819;28;20233;-75
2022/10/13 03:15:52;;;;;;;6.73;5.07;;;;;;;;;;4977904;28;20306;-74
2022/10/13 03:18:19;;;;;;;6.70;5.03;;;;;;;;;;4981963;28;20237;-75
2022/10/13 03:20:58;;;;;;;10.30;5.20;;;;;;;;;;4990447;28;20260;-76
2022/10/13 03:23:23;;;;;;;6.50;4.70;;;;;;;;;;4977966;28;20306;-75
2022/10/13 03:25:49;;;;;;;6.90;4.53;;;;;;;;;;4998407;28;20282;-74
2022/10/13 03:28:17;;;;;;;7.90;5.00;;;;;;;;;;5009038;28;20225;-74
2022/10/13 03:30:44;;;;;;;7.23;5.03;;;;;;;;;;4999227;28;20251;-75
2022/10/13 03:33:15;;;;;;;8.27;4.60;;;;;;;;;;4995865;28;20760;-73
2022/10/13 03:35:43;;;;;;;5.60;4.67;;;;;;;;;;4986393;28;20221;-72
2022/10/13 03:38:08;;;;;;;8.73;5.73;;;;;;;;;;4985425;28;20224;-75
2022/10/13 03:40:35;;;;;;;5.47;4.93;;;;;;;;;;4982871;28;20308;-75
2022/10/13 03:43:03;;;;;;;8.77;4.97;;;;;;;;;;4993680;28;20308;-75
2022/10/13 03:45:30;;;;;;;7.73;5.20;;;;;;;;;;4964688;28;20222;-75
2022/10/13 03:47:57;;;;;;;6.40;5.67;;;;;;;;;;4993658;28;20239;-75
2022/10/13 03:50:30;;;;;;;7.03;6.30;;;;;;;;;;4987959;28;20256;-75
2022/10/13 03:52:55;;;;;;;7.40;6.70;;;;;;;;;;4999678;28;20234;-75
2022/10/13 03:55:21;;;;;;;9.97;7.67;;;;;;;;;;4991778;28;20233;-75
2022/10/13 03:57:46;;;;;;;6.93;6.20;;;;;;;;;;4975920;28;20320;-75
2022/10/13 04:00:13;;;;;;;7.03;6.30;;;;;;;;;;4987530;28;20209;-74
2022/10/13 04:02:38;;;;;;;6.23;5.60;;;;;;;;;;4993104;28;20225;-75
2022/10/13 04:05:06;;;;;;;6.47;5.80;;;;;;;;;;4994456;28;20225;-75
2022/10/13 04:07:32;;;;;;;8.97;6.20;;;;;;;;;;4998719;28;20228;-75
2022/10/13 04:10:03;;;;;;;5.93;5.23;;;;;;;;;;4980153;28;20225;-75
2022/10/13 04:12:28;;;;;;;6.47;5.40;;;;;;;;;;4982796;28;20222;-76
2022/10/13 04:14:56;;;;;;;8.27;5.20;;;;;;;;;;4988793;28;20229;-74
2022/10/13 04:17:24;;;;;;;6.77;5.07;;;;;;;;;;4973490;28;20295;-74
2022/10/13 04:19:51;;;;;;;6.07;5.53;;;;;;;;;;4989262;28;20230;-75
2022/10/13 04:22:19;;;;;;;6.70;5.73;;;;;;;;;;4994578;28;20233;-75
2022/10/13 04:24:46;;;;;;;11.07;6.13;;;;;;;;;;4998057;28;20601;-74
2022/10/13 04:27:18;;;;;;;7.33;5.60;;;;;;;;;;4981724;28;20229;-74
2022/10/13 04:29:46;;;;;;;9.17;5.23;;;;;;;;;;4978584;28;20718;-74
2022/10/13 04:32:12;;;;;;;6.97;6.33;;;;;;;;;;4999671;28;20666;-75
2022/10/13 04:34:42;;;;;;;10.83;6.37;;;;;;;;;;4986436;28;20240;-75
2022/10/13 04:37:12;;;;;;;8.50;6.20;;;;;;;;;;4952252;28;20250;-75
2022/10/13 04:39:37;;;;;;;7.00;5.67;;;;;;;;;;4973259;28;20241;-75
2022/10/13 04:42:05;;;;;;;7.17;5.70;;;;;;;;;;4994555;28;20340;-75
2022/10/13 04:44:36;;;;;;;6.53;5.70;;;;;;;;;;4976886;28;20596;-74
2022/10/13 04:47:03;;;;;;;8.17;5.60;;;;;;;;;;4997720;28;20234;-75
2022/10/13 04:49:29;;;;;;;8.93;5.50;;;;;;;;;;5008611;28;20272;-75
2022/10/13 04:51:57;;;;;;;7.47;5.20;;;;;;;;;;4975557;28;20272;-74
2022/10/13 04:54:22;;;;;;;7.67;5.93;;;;;;;;;;4990118;28;20481;-75
2022/10/13 04:56:50;;;;;;;7.13;5.90;;;;;;;;;;4994498;28;20237;-75
2022/10/13 04:59:18;;;;;;;6.20;5.70;;;;;;;;;;4993044;28;20233;-75
2022/10/13 05:01:46;;;;;;;8.27;5.90;;;;;;;;;;4973382;28;20289;-75
2022/10/13 05:04:12;;;;;;;10.87;5.87;;;;;;;;;;4994199;28;20221;-72
2022/10/13 05:06:41;;;;;;;6.23;5.63;;;;;;;;;;4980964;28;20230;-75
2022/10/13 05:09:09;;;;;;;6.87;6.17;;;;;;;;;;5009480;28;20228;-75
2022/10/13 05:11:46;;;;;;;9.33;6.27;;;;;;;;;;4957283;28;20225;-74
2022/10/13 05:14:12;;;;;;;9.37;6.20;;;;;;;;;;4999645;28;20321;-74
2022/10/13 05:16:40;;;;;;;10.47;6.20;;;;;;;;;;4991017;28;20313;-75
2022/10/13 05:19:09;;;;;;;7.27;5.70;;;;;;;;;;4983187;28;20711;-76
2022/10/13 05:21:38;;;;;;;8.17;6.53;;;;;;;;;;4970950;28;20237;-76
2022/10/13 05:24:05;;;;;;;7.27;6.30;;;;;;;;;;4992588;28;20316;-76
2022/10/13 05:26:32;;;;;;;7.30;6.47;;;;;;;;;;4983033;28;20221;-76
2022/10/13 05:29:00;;;;;;;7.80;6.33;;;;;;;;;;4997185;28;20666;-75
2022/10/13 05:31:29;;;;;;;7.13;6.33;;;;;;;;;;4998304;28;20308;-76
2022/10/13 05:33:58;;;;;;;7.70;6.17;;;;;;;;;;4979605;28;20315;-75
2022/10/13 05:36:30;;;;;;;7.37;6.60;;;;;;;;;;4967023;28;20217;-75
2022/10/13 05:38:59;;;;;;;7.77;6.87;;;;;;;;;;4996840;28;20228;-75
2022/10/13 05:41:25;;;;;;;8.60;7.10;;;;;;;;;;4994371;28;20602;-75
2022/10/13 05:43:56;;;;;;;8.70;6.67;;;;;;;;;;5002724;28;20248;-75
2022/10/13 05:46:22;;;;;;;10.73;6.63;;;;;;;;;;4977954;28;20237;-75
2022/10/13 05:48:48;;;;;;;7.67;6.73;;;;;;;;;;4979364;28;20230;-76
2022/10/13 05:51:18;;;;;;;7.80;7.10;;;;;;;;;;4984686;28;20729;-74
2022/10/13 05:53:51;;;;;;;9.23;6.70;;;;;;;;;;4978656;28;20237;-75
2022/10/13 05:56:20;;;;;;;7.27;6.57;;;;;;;;;;4978904;28;20722;-74
2022/10/13 05:58:48;;;;;;;8.63;6.90;;;;;;;;;;4995210;28;20233;-75
2022/10/13 06:01:16;;;;;;;7.50;6.80;;;;;;;;;;4994613;28;20216;-75
2022/10/13 06:03:44;;;;;;;8.57;7.23;;;;;;;;;;4997104;28;20229;-76
2022/10/13 06:06:09;;;;;;;9.47;6.90;;;;;;;;;;4983712;28;20766;-74
2022/10/13 06:08:37;;;;;;;8.67;6.80;;;;;;;;;;4968438;28;20221;-74
2022/10/13 06:11:03;;;;;;;8.00;7.20;;;;;;;;;;4992433;28;20225;-74
2022/10/13 06:13:29;;;;;;;8.70;6.97;;;;;;;;;;4974237;28;20233;-74
2022/10/13 06:15:54;;;;;;;8.03;7.17;;;;;;;;;;4997883;28;20687;-72
2022/10/13 06:18:20;;;;;;;8.17;7.47;;;;;;;;;;4983100;28;20233;-74
2022/10/13 06:20:45;;;;;;;8.03;7.23;;;;;;;;;;4998374;28;20736;-75
2022/10/13 06:23:14;;;;;;;7.83;7.13;;;;;;;;;;4974825;28;20226;-75
2022/10/13 06:25:49;;;;;;;9.50;7.40;;;;;;;;;;4986524;28;20249;-74
2022/10/13 06:28:23;;;;;;;9.30;7.40;;;;;;;;;;4965195;28;20750;-74
2022/10/13 06:30:55;;;;;;;8.37;7.00;;;;;;;;;;4982216;28;20247;-74
2022/10/13 06:33:22;;;;;;;9.17;7.47;;;;;;;;;;4990518;28;20748;-74
2022/10/13 06:35:52;;;;;;;8.73;7.57;;;;;;;;;;4977907;28;20229;-74
2022/10/13 06:38:19;;;;;;;7.60;6.90;;;;;;;;;;4976739;28;20335;-75
2022/10/13 06:40:48;;;;;;;9.83;6.80;;;;;;;;;;4982057;28;20231;-75
2022/10/13 06:43:14;;;;;;;8.03;7.23;;;;;;;;;;4985254;28;20217;-72
2022/10/13 06:45:40;;;;;;;8.50;7.43;;;;;;;;;;4981063;28;20738;-73
2022/10/13 06:48:06;;;;;;;9.87;7.00;;;;;;;;;;4980753;28;20230;-74
2022/10/13 06:50:31;;;;;;;9.97;8.00;;;;;;;;;;4978525;28;20222;-74
2022/10/13 06:53:02;;;;;;;11.17;7.97;;;;;;;;;;4993615;28;20622;-73
2022/10/13 06:55:27;;;;;;;17.87;15.93;;;;;;;;;;5007916;28;20245;-75
2022/10/13 06:57:53;;;;;;;11.07;9.90;;;;;;;;;;4999221;28;20243;-76
2022/10/13 07:00:19;;;;;;;9.47;8.57;;;;;;;;;;4958563;28;21034;-74
2022/10/13 07:02:48;;;;;;;11.43;8.73;;;;;;;;;;4994779;28;20729;-73
2022/10/13 07:05:20;;;;;;;11.33;8.87;;;;;;;;;;4970360;28;20721;-74
2022/10/13 07:07:46;;;;;;;13.40;10.00;;;;;;;;;;4986037;28;20234;-74
2022/10/13 07:10:14;;;;;;;10.67;8.73;;;;;;;;;;4975376;28;20217;-74
2022/10/13 07:12:39;;;;;;;10.47;9.33;;;;;;;;;;4995021;28;20279;-74
2022/10/13 07:15:10;;;;;;;11.87;8.10;;;;;;;;;;4994505;28;20233;-74
2022/10/13 07:17:38;;;;;;;11.47;9.87;;;;;;;;;;4985090;28;20260;-74
2022/10/13 07:20:07;;;;;;;10.83;9.73;;;;;;;;;;5006384;28;20224;-73
2022/10/13 07:22:32;;;;;;;10.13;8.80;;;;;;;;;;4982587;28;20808;-73
2022/10/13 07:24:58;;;;;;;9.30;8.40;;;;;;;;;;5001456;28;20226;-75
2022/10/13 07:27:23;;;;;;;9.67;8.67;;;;;;;;;;4967263;28;20605;-74
2022/10/13 07:29:49;;;;;;;9.43;8.57;;;;;;;;;;4965189;28;20240;-75
2022/10/13 07:32:17;;;;;;;10.67;9.57;;;;;;;;;;4975220;28;20217;-74
2022/10/13 07:34:42;;;;;;;9.87;8.80;;;;;;;;;;4978658;28;20715;-74
2022/10/13 07:37:08;;;;;;;10.13;8.37;;;;;;;;;;4996923;28;20221;-74
2022/10/13 07:39:36;;;;;;;10.50;9.40;;;;;;;;;;4997465;28;20278;-74
2022/10/13 07:42:02;;;;;;;12.10;9.00;;;;;;;;;;5010527;28;20229;-73
2022/10/13 07:44:27;;;;;;;10.37;8.13;;;;;;;;;;4998049;28;20277;-74
2022/10/13 07:46:55;;;;;;;12.00;8.73;;;;;;;;;;4966488;28;20244;-73
2022/10/13 07:49:21;;;;;;;11.40;8.40;;;;;;;;;;4980879;28;20218;-72
2022/10/13 07:51:51;;;;;;;9.97;8.87;;;;;;;;;;4983790;28;20651;-74
2022/10/13 07:54:18;;;;;;;11.03;8.97;;;;;;;;;;4990730;28;20398;-73
2022/10/13 07:56:48;;;;;;;9.97;9.00;;;;;;;;;;4992271;28;20230;-74
2022/10/13 07:59:16;;;;;;;10.10;8.87;;;;;;;;;;4992243;28;20213;-74
2022/10/13 08:01:43;;;;;;;10.43;7.80;;;;;;;;;;4968451;28;20218;-74
2022/10/13 08:04:09;;;;;;;9.40;8.47;;;;;;;;;;4971763;28;20217;-74
2022/10/13 08:06:35;;;;;;;9.93;8.20;;;;;;;;;;4991407;28;20722;-73
2022/10/13 08:09:03;;;;;;;9.00;8.03;;;;;;;;;;4993517;28;20285;-74
2022/10/13 08:11:29;;;;;;;12.40;8.23;;;;;;;;;;4947041;28;20599;-74
2022/10/13 08:13:59;;;;;;;8.80;7.93;;;;;;;;;;4993966;28;20234;-74
2022/10/13 08:16:29;;;;;;;8.43;7.60;;;;;;;;;;4994245;28;20229;-73
2022/10/13 08:18:56;;;;;;;8.10;7.33;;;;;;;;;;4983823;28;20304;-74
2022/10/13 08:21:21;;;;;;;10.00;7.37;;;;;;;;;;4993509;28;20365;-74
2022/10/13 08:23:50;;;;;;;9.07;6.80;;;;;;;;;;4976060;28;20225;-74
2022/10/13 08:26:22;;;;;;;7.60;6.90;;;;;;;;;;4988755;28;20267;-74
2022/10/13 08:28:47;;;;;;;8.37;7.33;;;;;;;;;;4959686;28;20277;-74
2022/10/13 08:31:13;;;;;;;9.17;7.10;;;;;;;;;;4969046;28;20699;-73
2022/10/13 08:33:40;;;;;;;11.03;8.23;;;;;;;;;;4997238;28;20237;-74
2022/10/13 08:36:10;;;;;;;14.23;8.30;;;;;;;;;;4992129;28;20257;-74
2022/10/13 08:38:36;;;;;;;11.67;8.07;;;;;;;;;;4988143;28;20692;-73
2022/10/13 08:41:01;;;;;;;9.43;8.33;;;;;;;;;;4977922;28;20244;-74
2022/10/13 08:43:27;;;;;;;9.67;8.13;;;;;;;;;;4990790;28;20725;-74
2022/10/13 08:45:57;;;;;;;8.40;7.60;;;;;;;;;;4978458;28;20235;-73
2022/10/13 08:48:25;;;;;;;9.50;8.53;;;;;;;;;;4978495;28;20241;-74
2022/10/13 08:50:58;;;;;;;9.27;7.67;;;;;;;;;;4981543;28;20253;-72
2022/10/13 08:53:38;;;;;;;14.57;7.97;;;;;;;;;;4987078;28;20716;-74
2022/10/13 08:56:19;;;;;;;9.73;7.40;;;;;;;;;;4994070;28;20583;-74
2022/10/13 08:58:48;;;;;;;8.43;7.63;;;;;;;;;;4990151;28;20492;-74
2022/10/13 09:01:15;;;;;;;9.20;7.93;;;;;;;;;;4954421;28;20224;-74
2022/10/13 09:04:15;;;;;;;9.20;7.70;;;;;;;;;;4998927;28;20234;-73
2022/10/13 09:06:47;;;;;;;8.53;7.63;;;;;;;;;;4992665;28;20232;-73
2022/10/13 09:09:15;;;;;;;8.33;7.43;;;;;;;;;;4963661;28;20209;-74
2022/10/13 09:11:45;;;;;;;10.23;7.80;;;;;;;;;;4999079;28;20225;-74
2022/10/13 09:14:19;;;;;;;9.73;7.63;;;;;;;;;;4993647;28;20233;-73
2022/10/13 09:16:45;;;;;;;10.00;8.37;;;;;;;;;;4979314;28;20225;-73
2022/10/13 09:19:29;;;;;;;16.20;8.70;;;;;;;;;;4964478;28;20277;-73
2022/10/13 09:22:15;;;;;;;7.70;7.00;;;;;;;;;;4991974;28;20712;-73
2022/10/13 09:24:41;;;;;;;9.90;8.13;;;;;;;;;;4980162;28;20286;-73
2022/10/13 09:27:16;;;;;;;9.47;7.40;;;;;;;;;;4982492;28;20226;-72
2022/10/13 09:29:42;;;;;;;9.37;8.03;;;;;;;;;;4988406;28;20239;-73
2022/10/13 09:32:22;;;;;;;8.30;7.50;;;;;;;;;;5005172;28;20216;-74
2022/10/13 09:34:51;;;;;;;9.90;7.60;;;;;;;;;;4997124;28;20300;-72
2022/10/13 09:37:21;;;;;;;11.27;7.97;;;;;;;;;;4983442;28;20214;-72
2022/10/13 09:40:10;;;;;;;9.83;7.80;;;;;;;;;;4987789;28;20229;-73
2022/10/13 09:42:39;;;;;;;9.00;7.70;;;;;;;;;;4976663;28;20398;-74
2022/10/13 09:45:15;;;;;;;10.20;7.40;;;;;;;;;;4992347;28;20233;-73
2022/10/13 09:47:43;;;;;;;9.67;7.67;;;;;;;;;;4969646;28;20865;-72
2022/10/13 09:50:14;;;;;;;7.90;7.10;;;;;;;;;;4976644;28;20221;-72
2022/10/13 09:52:40;;;;;;;9.33;7.40;;;;;;;;;;5000535;28;20233;-72
2022/10/13 09:55:26;;;;;;;8.33;7.43;;;;;;;;;;5000264;28;20236;-72
2022/10/13 09:57:55;;;;;;;8.93;7.50;;;;;;;;;;4990871;28;20325;-73
2022/10/13 10:00:23;;;;;;;13.85;7.93;;;;;;;;;;4958849;28;20214;-73
2022/10/13 10:02:53;;;;;;;8.60;7.47;;;;;;;;;;5005542;28;20296;-73
2022/10/13 10:05:30;;;;;;;9.57;8.23;;;;;;;;;;4990067;28;20821;-73
2022/10/13 10:07:59;;;;;;;10.93;7.57;;;;;;;;;;5002154;28;20237;-75
2022/10/13 10:10:34;;;;;;;9.60;7.72;;;;;;;;;;4963149;28;20228;-73
2022/10/13 10:13:04;;;;;;;7.88;7.18;;;;;;;;;;5003049;28;20251;-76
2022/10/13 10:15:54;;;;;;;9.93;7.25;;;;;;;;;;4962095;28;20677;-74
2022/10/13 10:18:29;;;;;;;8.02;7.32;;;;;;;;;;4988880;28;20248;-73
2022/10/13 10:21:26;;;;;;;9.43;8.07;;;;;;;;;;4976487;28;20253;-73
2022/10/13 10:24:18;;;;;;;8.52;7.47;;;;;;;;;;4996655;28;20240;-74
2022/10/13 10:27:13;;;;;;;8.27;7.47;;;;;;;;;;4993403;28;20241;-73
2022/10/13 10:30:01;;;;;;;10.15;8.20;;;;;;;;;;4996604;28;20234;-74
2022/10/13 10:32:51;;;;;;;9.35;7.68;;;;;;;;;;4975340;28;20312;-75
2022/10/13 10:35:34;;;;;;;9.82;8.82;;;;;;;;;;4992150;28;20675;-75
2022/10/13 10:38:32;;;;;;;10.05;8.43;;;;;;;;;;5001480;28;20241;-76
2022/10/13 10:41:19;;;;;;;9.37;8.33;;;;;;;;;;5012754;28;20233;-75
2022/10/13 10:43:53;;;;;;;9.77;8.10;;;;;;;;;;4984403;28;20233;-74
2022/10/13 10:46:23;;;;;;;8.33;7.53;;;;;;;;;;5007316;28;20878;-74
2022/10/13 10:48:52;;;;;;;10.00;7.72;;;;;;;;;;4997388;28;20340;-74
2022/10/13 10:51:18;;;;;;;8.15;7.35;;;;;;;;;;4981846;28;20287;-74
2022/10/13 10:53:52;;;;;;;13.05;7.53;;;;;;;;;;4972561;28;20234;-74
2022/10/13 10:56:27;;;;;;;8.55;7.03;;;;;;;;;;5005979;28;20673;-75
2022/10/13 10:58:58;;;;;;;8.63;7.05;;;;;;;;;;4999337;28;20221;-74
2022/10/13 11:01:43;;;;;;;8.00;6.47;;;;;;;;;;4994017;28;20226;-76
2022/10/13 11:04:30;;;;;;;8.88;8.02;;;;;;;;;;5000012;28;20228;-75
2022/10/13 11:06:56;;;;;;;9.07;6.32;;;;;;;;;;4979052;28;20229;-76
2022/10/13 11:09:40;;;;;;;8.52;7.03;;;;;;;;;;5005025;28;20955;-74
2022/10/13 11:12:18;;;;;;;7.63;5.43;;;;;;;;;;4983832;28;20233;-75
2022/10/13 11:14:47;;;;;;;6.22;5.40;;;;;;;;;;5004927;28;20256;-76
2022/10/13 11:17:20;;;;;;;9.68;5.22;;;;;;;;;;4993109;28;20260;-74
2022/10/13 11:19:48;;;;;;;5.35;4.65;;;;;;;;;;4958871;28;20825;-75
2022/10/13 11:22:18;;;;;;;7.07;4.68;;;;;;;;;;4979656;28;20296;-75
2022/10/13 11:24:46;;;;;;;5.45;4.90;;;;;;;;;;4978985;28;20665;-76
2022/10/13 11:27:14;;;;;;;6.35;4.40;;;;;;;;;;4974782;28;20227;-75
2022/10/13 11:29:47;;;;;;;4.93;4.53;;;;;;;;;;4995093;28;20222;-75
2022/10/13 11:32:25;;;;;;;5.22;4.57;;;;;;;;;;4993413;28;20305;-74
2022/10/13 11:34:59;;;;;;;7.10;4.28;;;;;;;;;;5002455;28;20250;-76
2022/10/13 11:37:47;;;;;;;7.78;4.43;;;;;;;;;;5008229;28;21013;-77
2022/10/13 11:40:39;;;;;;;5.93;4.22;;;;;;;;;;4964504;28;20225;-74
2022/10/13 11:43:23;;;;;;;4.20;3.63;;;;;;;;;;4979924;28;20280;-74
2022/10/13 11:45:54;;;;;;;4.30;3.90;;;;;;;;;;4992134;28;20243;-74
2022/10/13 11:48:38;;;;;;;4.85;4.38;;;;;;;;;;5002066;28;20742;-75
2022/10/13 11:51:38;;;;;;;7.22;4.50;;;;;;;;;;5006132;28;20278;-75
2022/10/13 11:54:29;;;;;;;6.43;4.68;;;;;;;;;;4993139;28;20260;-75
2022/10/13 11:56:55;;;;;;;5.95;4.35;;;;;;;;;;5007827;28;20707;-74
2022/10/13 11:59:28;;;;;;;4.78;4.15;;;;;;;;;;4980112;28;20285;-75
2022/10/13 12:02:17;;;;;;;6.75;4.07;;;;;;;;;;4972576;28;20810;-74
2022/10/13 12:04:58;;;;;;;6.53;4.72;;;;;;;;;;4979818;28;20771;-74
2022/10/13 12:07:24;;;;;;;7.35;4.80;;;;;;;;;;4981659;28;20227;-74
2022/10/13 12:09:53;;;;;;;5.95;5.35;;;;;;;;;;4988668;28;20222;-74
2022/10/13 12:12:21;;;;;;;5.40;4.88;;;;;;;;;;4980600;28;20223;-74
2022/10/13 12:14:51;;;;;;;5.30;4.43;;;;;;;;;;4979505;28;20236;-75
2022/10/13 12:17:25;;;;;;;8.80;4.72;;;;;;;;;;4997319;28;20664;-74
2022/10/13 12:19:54;;;;;;;13.57;5.30;;;;;;;;;;4996504;28;20276;-75
2022/10/13 12:22:19;;;;;;;5.10;4.60;;;;;;;;;;4980021;28;20568;-74
2022/10/13 12:25:06;;;;;;;8.35;5.90;;;;;;;;;;4977871;28;20231;-74
2022/10/13 12:27:43;;;;;;;7.25;5.88;;;;;;;;;;4985550;28;20280;-74
2022/10/13 12:30:35;;;;;;;8.30;5.82;;;;;;;;;;4999403;28;20233;-74
2022/10/13 12:33:24;;;;;;;7.47;5.47;;;;;;;;;;4998026;28;20704;-74
2022/10/13 12:35:55;;;;;;;6.35;4.82;;;;;;;;;;4977387;28;20297;-74
2022/10/13 12:38:21;;;;;;;6.05;5.43;;;;;;;;;;4995577;28;20221;-74
2022/10/13 12:40:47;;;;;;;7.22;5.28;;;;;;;;;;4998690;28;20248;-74
2022/10/13 12:43:17;;;;;;;5.35;4.53;;;;;;;;;;4989116;28;20256;-75
2022/10/13 12:45:46;;;;;;;6.65;5.25;;;;;;;;;;4976939;28;20228;-74
2022/10/13 12:48:33;;;;;;;6.35;5.28;;;;;;;;;;4998887;28;20233;-74
2022/10/13 12:51:16;;;;;;;5.85;5.25;;;;;;;;;;4992734;28;20221;-73
2022/10/13 12:53:47;;;;;;;7.45;5.35;;;;;;;;;;5007347;28;20714;-73
2022/10/13 12:56:28;;;;;;;9.20;5.70;;;;;;;;;;4975637;28;20232;-74
2022/10/13 12:58:54;;;;;;;7.38;5.45;;;;;;;;;;4966242;28;20291;-74
2022/10/13 13:01:30;;;;;;;6.53;5.78;;;;;;;;;;4962486;28;20225;-75
2022/10/13 13:04:15;;;;;;;13.23;5.50;;;;;;;;;;4984565;28;20328;-75
2022/10/13 13:06:51;;;;;;;7.07;5.68;;;;;;;;;;4991953;28;20236;-74
2022/10/13 13:09:22;;;;;;;6.03;5.53;;;;;;;;;;4974272;28;20224;-74
2022/10/13 13:12:09;;;;;;;8.70;6.07;;;;;;;;;;4989831;28;20268;-76
2022/10/13 13:14:36;;;;;;;6.25;5.47;;;;;;;;;;4992678;28;20261;-76
2022/10/13 13:17:08;;;;;;;5.55;5.05;;;;;;;;;;4994248;28;20229;-76
2022/10/13 13:19:34;;;;;;;8.25;5.55;;;;;;;;;;4984909;28;20225;-75
2022/10/13 13:21:59;;;;;;;7.15;6.45;;;;;;;;;;4955635;28;20232;-76
2022/10/13 13:24:25;;;;;;;9.45;5.72;;;;;;;;;;4966646;28;20595;-78
2022/10/13 13:26:53;;;;;;;5.78;4.80;;;;;;;;;;4993112;28;20245;-75
2022/10/13 13:29:18;;;;;;;6.43;5.05;;;;;;;;;;4974504;28;20241;-74
2022/10/13 13:31:44;;;;;;;7.15;4.85;;;;;;;;;;4983818;28;20307;-75
2022/10/13 13:34:12;;;;;;;7.28;5.03;;;;;;;;;;4974523;28;20630;-74
2022/10/13 13:36:40;;;;;;;8.93;5.35;;;;;;;;;;4991110;28;20880;-75
2022/10/13 13:39:10;;;;;;;8.18;4.70;;;;;;;;;;4954348;28;20313;-76
2022/10/13 13:41:36;;;;;;;6.68;5.75;;;;;;;;;;4992819;28;20312;-75
2022/10/13 13:44:01;;;;;;;7.32;5.13;;;;;;;;;;5003375;28;20340;-76
2022/10/13 13:46:27;;;;;;;6.05;5.15;;;;;;;;;;5002275;28;20922;-75
2022/10/13 13:48:53;;;;;;;5.25;4.75;;;;;;;;;;4963632;28;20239;-75
2022/10/13 13:51:18;;;;;;;5.93;4.88;;;;;;;;;;4978958;28;20225;-77
2022/10/13 13:53:44;;;;;;;5.95;4.40;;;;;;;;;;4978853;28;20229;-73
2022/10/13 13:56:15;;;;;;;5.82;4.60;;;;;;;;;;4996671;28;20228;-79
2022/10/13 13:58:43;;;;;;;4.47;4.07;;;;;;;;;;4957453;28;20232;-76
2022/10/13 14:01:11;;;;;;;5.65;5.05;;;;;;;;;;4982087;28;20254;-75
2022/10/13 14:03:38;;;;;;;11.88;6.13;;;;;;;;;;4996684;28;20722;-75
2022/10/13 14:06:13;;;;;;;6.80;5.03;;;;;;;;;;4983668;28;20718;-73
2022/10/13 14:08:43;;;;;;;6.05;5.07;;;;;;;;;;4988392;28;20251;-74
2022/10/13 14:11:09;;;;;;;6.20;4.97;;;;;;;;;;4977958;28;20229;-74
2022/10/13 14:13:34;;;;;;;7.05;5.20;;;;;;;;;;4985440;28;20766;-74
2022/10/13 14:16:04;;;;;;;5.78;4.88;;;;;;;;;;4965868;28;20316;-73
2022/10/13 14:18:32;;;;;;;8.23;4.97;;;;;;;;;;4976909;28;20615;-74
2022/10/13 14:20:57;;;;;;;8.52;5.65;;;;;;;;;;4986354;28;20308;-74
2022/10/13 14:23:25;;;;;;;6.05;4.82;;;;;;;;;;4976158;28;20894;-74
2022/10/13 14:25:50;;;;;;;9.38;5.72;;;;;;;;;;4968358;28;20269;-74
2022/10/13 14:28:22;;;;;;;6.28;5.10;;;;;;;;;;4966263;28;20227;-73
2022/10/13 14:30:47;;;;;;;4.78;4.28;;;;;;;;;;4988770;28;20221;-74
2022/10/13 14:33:18;;;;;;;6.43;4.45;;;;;;;;;;4975293;28;20247;-73
2022/10/13 14:35:43;;;;;;;4.70;4.30;;;;;;;;;;4973521;28;20328;-74
2022/10/13 14:38:12;;;;;;;6.47;4.22;;;;;;;;;;4997264;28;20267;-74
2022/10/13 14:40:42;;;;;;;5.38;4.07;;;;;;;;;;4966038;28;20305;-74
2022/10/13 14:43:07;;;;;;;8.00;4.65;;;;;;;;;;4989389;28;20221;-74
2022/10/13 14:45:35;;;;;;;5.00;4.07;;;;;;;;;;4982231;28;20725;-75
2022/10/13 14:48:01;;;;;;;6.85;4.45;;;;;;;;;;4974057;28;20703;-73
2022/10/13 14:50:27;;;;;;;4.25;3.72;;;;;;;;;;4959444;28;20252;-73
2022/10/13 14:52:55;;;;;;;3.97;3.60;;;;;;;;;;4958704;28;20233;-72
2022/10/13 14:55:21;;;;;;;8.23;3.80;;;;;;;;;;4997036;28;20263;-73
2022/10/13 14:57:47;;;;;;;6.70;3.80;;;;;;;;;;4968460;28;20222;-74
2022/10/13 15:00:13;;;;;;;5.50;4.38;;;;;;;;;;4996062;28;20237;-72
2022/10/13 15:02:41;;;;;;;5.30;3.75;;;;;;;;;;4978395;28;20312;-75